Terminal Aerodrome Forecast
Issued by NWS Paducah, KY

Current Version | Previous Version | Text Only | Print | Product List | Glossary On
Versions: 1 2 3 4 5 6 7 8 9 10 11 12 13
132
FTUS43 KPAH 162324
TAFPAH
TAF
KPAH 162324Z 1700/1724 19005KT P6SM SCT130 BKN200
     FM170900 18006KT P6SM SCT030 OVC050
     FM171100 17008KT 4SM -RA BR SCT015 OVC030
      TEMPO 1714/1718 2SM RA BR OVC015
     FM171900 20006KT P6SM SCT020 OVC040=

USA.gov is the U.S. government's official web portal to all federal, state and local government web resources and services.